createdAt,value
2022-07-25T00:01:25.873Z,3.13
2022-07-25T00:07:32.360Z,2.87
2022-07-25T00:19:51.546Z,3.43
2022-07-25T00:25:53.530Z,2.90
2022-07-25T00:31:55.544Z,2.90
2022-07-25T00:37:57.592Z,3.20
2022-07-25T00:43:59.604Z,3.67
2022-07-25T00:50:01.654Z,3.50
2022-07-25T00:56:05.567Z,3.03
2022-07-25T01:02:07.850Z,2.90
2022-07-25T01:08:10.360Z,3.40
2022-07-25T01:14:12.375Z,3.43
2022-07-25T01:20:26.205Z,3.37
2022-07-25T01:26:28.283Z,3.13
2022-07-25T01:32:30.266Z,3.13
2022-07-25T01:38:32.243Z,2.93
2022-07-25T01:44:34.223Z,3.37
2022-07-25T01:50:36.264Z,3.17
2022-07-25T01:56:44.525Z,3.07
2022-07-25T02:02:49.050Z,2.80
2022-07-25T02:08:51.005Z,3.53
2022-07-25T02:14:53.135Z,3.53
2022-07-25T02:20:55.099Z,3.30
2022-07-25T02:26:57.092Z,3.83
2022-07-25T02:33:00.163Z,3.67
2022-07-25T02:39:02.478Z,3.10
2022-07-25T02:45:05.113Z,3.00
2022-07-25T02:51:07.135Z,3.33
2022-07-25T02:57:09.154Z,3.07
2022-07-25T03:03:11.170Z,2.80
2022-07-25T03:09:13.204Z,2.97
2022-07-25T03:15:16.401Z,3.50
2022-07-25T03:21:18.431Z,2.60
2022-07-25T03:27:20.608Z,3.20
2022-07-25T03:33:22.693Z,3.00
2022-07-25T03:39:24.726Z,3.17
2022-07-25T03:45:26.872Z,4.00
2022-07-25T03:51:29.048Z,3.07
2022-07-25T03:57:31.108Z,3.07
2022-07-25T04:03:33.175Z,3.10
2022-07-25T04:09:35.230Z,3.30
2022-07-25T04:15:37.244Z,3.10
2022-07-25T04:21:40.231Z,3.27
2022-07-25T04:27:42.328Z,3.10
2022-07-25T04:33:45.143Z,3.40
2022-07-25T04:39:47.122Z,3.10
2022-07-25T04:45:49.224Z,3.47
2022-07-25T04:51:51.296Z,3.20
2022-07-25T04:57:53.332Z,3.33
2022-07-25T05:03:55.317Z,3.10
2022-07-25T05:09:57.543Z,3.60
2022-07-25T05:15:59.637Z,3.60
2022-07-25T05:22:02.019Z,2.60
2022-07-25T05:28:04.542Z,3.53
2022-07-25T05:34:07.009Z,2.90
2022-07-25T05:40:09.794Z,3.10
2022-07-25T05:46:12.031Z,2.80
2022-07-25T05:52:14.295Z,3.70
2022-07-25T05:58:17.296Z,3.17
2022-07-25T06:04:22.935Z,2.60
2022-07-25T06:10:27.709Z,3.80
2022-07-25T06:16:29.850Z,3.10
2022-07-25T06:22:32.258Z,3.30
2022-07-25T06:28:34.340Z,3.27
2022-07-25T06:34:36.425Z,3.43
2022-07-25T06:40:38.493Z,5.27
2022-07-25T06:46:40.867Z,3.60
2022-07-25T06:52:42.968Z,3.17
2022-07-25T06:58:45.468Z,4.03
2022-07-25T07:04:47.630Z,4.00
2022-07-25T07:10:49.763Z,4.50
2022-07-25T07:16:51.823Z,4.77
2022-07-25T07:22:54.075Z,4.60
2022-07-25T07:28:56.442Z,4.10
2022-07-25T07:34:58.532Z,5.60
2022-07-25T07:41:00.699Z,4.50
2022-07-25T07:47:02.903Z,4.10
2022-07-25T07:53:05.328Z,4.20
2022-07-25T07:59:08.455Z,4.63
2022-07-25T08:05:10.780Z,4.60
2022-07-25T08:11:12.840Z,4.63
2022-07-25T08:17:14.872Z,5.40
2022-07-25T08:23:18.550Z,4.90
2022-07-25T08:29:23.892Z,5.83
2022-07-25T08:35:30.727Z,5.63
2022-07-25T08:41:34.345Z,5.40
2022-07-25T08:47:37.390Z,5.70
2022-07-25T08:53:40.136Z,6.07
2022-07-25T08:59:43.530Z,5.80
2022-07-25T09:05:45.802Z,6.10
2022-07-25T09:11:50.038Z,6.00
2022-07-25T09:17:53.683Z,5.90
2022-07-25T09:23:55.739Z,5.97
2022-07-25T09:29:57.805Z,6.17
2022-07-25T09:36:09.589Z,5.63
2022-07-25T09:42:23.956Z,5.70
2022-07-25T09:48:26.085Z,5.90
2022-07-25T09:54:28.420Z,5.20
2022-07-25T10:00:32.680Z,5.97
2022-07-25T10:07:09.770Z,6.80
2022-07-25T10:13:18.161Z,6.60
2022-07-25T10:19:52.044Z,6.40
2022-07-25T10:26:19.714Z,6.33
2022-07-25T10:32:32.605Z,7.20
2022-07-25T10:38:34.821Z,6.13
2022-07-25T10:44:47.559Z,6.00
2022-07-25T10:50:57.234Z,5.23
2022-07-25T10:57:00.750Z,4.50
2022-07-25T11:03:03.896Z,4.60
2022-07-25T11:09:28.417Z,5.07
2022-07-25T11:15:30.676Z,4.60
2022-07-25T11:21:32.807Z,4.97
2022-07-25T11:27:34.862Z,5.40
2022-07-25T11:33:39.027Z,5.10
2022-07-25T11:39:43.998Z,4.93
2022-07-25T11:46:07.275Z,5.10
2022-07-25T11:52:19.483Z,5.13
2022-07-25T11:58:24.108Z,5.10
2022-07-25T12:04:26.296Z,4.70
2022-07-25T12:10:37.006Z,4.90
2022-07-25T12:16:39.777Z,4.90
2022-07-25T12:22:42.288Z,5.33
2022-07-25T12:28:44.472Z,4.77
2022-07-25T12:34:46.642Z,4.87
2022-07-25T12:40:49.589Z,4.77
2022-07-25T12:46:52.973Z,5.70
2022-07-25T12:52:55.156Z,5.53
2022-07-25T12:58:57.165Z,5.37
2022-07-25T13:04:59.462Z,5.60
2022-07-25T13:11:01.645Z,6.20
2022-07-25T13:17:03.929Z,5.30
2022-07-25T13:23:06.108Z,5.23
2022-07-25T13:29:09.749Z,5.00
2022-07-25T13:35:12.130Z,5.07
2022-07-25T13:41:14.546Z,5.23
2022-07-25T13:47:17.520Z,6.67
2022-07-25T13:53:19.515Z,7.23
2022-07-25T13:59:22.087Z,6.30
2022-07-25T14:05:24.459Z,6.60
2022-07-25T14:11:30.529Z,6.57
2022-07-25T14:17:36.442Z,7.40
2022-07-25T14:23:38.481Z,7.03
2022-07-25T14:29:40.733Z,6.20
2022-07-25T14:35:42.776Z,6.60
2022-07-25T14:41:44.796Z,5.60
2022-07-25T14:47:47.692Z,6.00
2022-07-25T14:53:53.241Z,7.07
2022-07-25T14:59:55.578Z,5.80
2022-07-25T15:05:57.734Z,6.07
2022-07-25T15:11:59.869Z,5.93
2022-07-25T15:18:02.165Z,6.97
2022-07-25T15:24:05.093Z,5.87
2022-07-25T15:30:08.043Z,6.57
2022-07-25T15:36:10.113Z,5.80
2022-07-25T15:42:12.299Z,5.40
2022-07-25T15:48:16.875Z,6.00
2022-07-25T15:54:18.940Z,5.53
2022-07-25T16:00:23.675Z,5.00
2022-07-25T16:06:28.595Z,4.23
2022-07-25T16:12:30.726Z,5.40
2022-07-25T16:18:32.802Z,4.30
2022-07-25T16:24:34.797Z,5.17
2022-07-25T16:30:36.820Z,5.27
2022-07-25T16:36:38.912Z,4.73
2022-07-25T16:42:41.021Z,4.60
2022-07-25T16:48:43.085Z,5.97
2022-07-25T16:54:45.195Z,7.53
2022-07-25T17:00:47.229Z,5.63
2022-07-25T17:06:51.685Z,5.27
2022-07-25T17:12:53.844Z,5.50
2022-07-25T17:18:55.886Z,6.83
2022-07-25T17:24:57.958Z,6.70
2022-07-25T17:31:00.094Z,7.20
2022-07-25T17:37:03.107Z,6.33
2022-07-25T17:43:05.618Z,6.27
2022-07-25T17:49:07.739Z,7.80
2022-07-25T17:55:12.045Z,10.40
2022-07-25T18:01:14.793Z,11.80
2022-07-25T18:07:17.083Z,11.17
2022-07-25T18:13:19.191Z,11.33
2022-07-25T18:19:23.569Z,9.40
2022-07-25T18:25:25.755Z,7.00
2022-07-25T18:31:27.919Z,6.70
2022-07-25T18:37:31.436Z,6.57
2022-07-25T18:43:33.531Z,5.70
2022-07-25T18:49:36.533Z,6.10
2022-07-25T18:55:38.685Z,5.13
2022-07-25T19:01:40.767Z,4.90
2022-07-25T19:07:43.390Z,4.50
2022-07-25T19:13:50.421Z,4.20
2022-07-25T19:19:53.473Z,4.27
2022-07-25T19:25:55.691Z,3.83
2022-07-25T19:31:57.762Z,3.50
2022-07-25T19:37:59.760Z,3.20
2022-07-25T19:44:01.794Z,3.00
2022-07-25T19:50:04.395Z,2.90
2022-07-25T19:56:08.430Z,3.33
2022-07-25T20:02:11.677Z,3.00
2022-07-25T20:08:13.768Z,2.80
2022-07-25T20:14:15.792Z,2.93
2022-07-25T20:20:17.944Z,3.90
2022-07-25T20:26:20.380Z,3.37
2022-07-25T20:32:22.898Z,2.80
2022-07-25T20:38:28.472Z,3.10
2022-07-25T20:44:30.580Z,3.07
2022-07-25T20:50:32.947Z,3.60
2022-07-25T20:56:35.065Z,3.57
2022-07-25T21:02:37.176Z,3.13
2022-07-25T21:08:39.274Z,3.87
2022-07-25T21:14:41.368Z,3.53
2022-07-25T21:20:47.312Z,2.77
2022-07-25T21:26:50.034Z,3.40
2022-07-25T21:32:52.043Z,2.97
2022-07-25T21:38:54.179Z,3.27
2022-07-25T21:44:56.213Z,3.90
2022-07-25T21:50:58.252Z,3.00
2022-07-25T21:57:00.478Z,2.60
2022-07-25T22:03:02.475Z,2.90
2022-07-25T22:09:06.152Z,3.00
2022-07-25T22:15:12.104Z,2.70
2022-07-25T22:21:15.865Z,2.60
2022-07-25T22:27:20.374Z,2.43
2022-07-25T22:33:22.349Z,2.37
2022-07-25T22:39:24.860Z,2.83
2022-07-25T22:45:27.099Z,2.60
2022-07-25T22:51:29.729Z,2.83
2022-07-25T22:57:36.995Z,3.10
2022-07-25T23:03:39.835Z,2.10
2022-07-25T23:09:41.922Z,2.30
2022-07-25T23:15:49.350Z,2.23
2022-07-25T23:21:52.610Z,2.20
2022-07-25T23:27:54.777Z,2.30
2022-07-25T23:33:56.733Z,2.63
2022-07-25T23:39:58.712Z,3.00
2022-07-25T23:46:00.776Z,3.10
2022-07-25T23:52:03.075Z,2.67
2022-07-25T23:58:05.070Z,3.27
